createdAt,value
2022-12-25T00:01:17.360Z,14.80
2022-12-25T00:04:00.520Z,14.23
2022-12-25T00:06:43.736Z,14.23
2022-12-25T00:09:28.274Z,14.40
2022-12-25T00:12:11.306Z,16.27
2022-12-25T00:14:54.357Z,13.57
2022-12-25T00:17:37.446Z,12.87
2022-12-25T00:20:20.847Z,16.47
2022-12-25T00:23:03.791Z,14.17
2022-12-25T00:25:48.202Z,13.00
2022-12-25T00:28:31.210Z,15.07
2022-12-25T00:31:16.784Z,13.53
2022-12-25T00:33:59.831Z,13.87
2022-12-25T00:36:42.947Z,13.63
2022-12-25T00:39:26.611Z,14.00
2022-12-25T00:42:21.441Z,13.40
2022-12-25T00:45:05.860Z,14.13
2022-12-25T00:47:48.897Z,20.27
2022-12-25T00:50:31.919Z,13.63
2022-12-25T00:53:14.913Z,14.17
2022-12-25T00:55:59.134Z,20.27
2022-12-25T00:58:44.003Z,14.73
2022-12-25T01:01:27.093Z,13.83
2022-12-25T01:04:11.616Z,14.70
2022-12-25T01:06:54.609Z,14.03
2022-12-25T01:09:55.186Z,14.10
2022-12-25T01:12:41.020Z,11.93
2022-12-25T01:15:25.712Z,12.33
2022-12-25T01:18:12.714Z,12.47
2022-12-25T01:20:55.982Z,12.30
2022-12-25T01:23:39.565Z,12.23
2022-12-25T01:26:25.563Z,12.93
2022-12-25T01:29:08.589Z,11.50
2022-12-25T01:31:53.041Z,12.00
2022-12-25T01:34:36.630Z,10.93
2022-12-25T01:37:19.961Z,12.27
2022-12-25T01:40:02.975Z,12.30
2022-12-25T01:42:46.013Z,12.13
2022-12-25T01:45:38.879Z,13.17
2022-12-25T01:48:27.271Z,11.03
2022-12-25T01:51:23.006Z,13.27
2022-12-25T01:54:09.478Z,13.27
2022-12-25T01:56:55.336Z,12.33
2022-12-25T01:59:38.495Z,14.17
2022-12-25T02:02:22.399Z,12.87
2022-12-25T02:05:11.492Z,11.97
2022-12-25T02:07:55.875Z,11.50
2022-12-25T02:10:39.978Z,12.50
2022-12-25T02:13:23.722Z,12.47
2022-12-25T02:16:14.427Z,12.83
2022-12-25T02:19:03.189Z,12.93
2022-12-25T02:22:02.563Z,12.23
2022-12-25T02:25:08.372Z,11.90
2022-12-25T02:28:08.601Z,11.57
2022-12-25T02:30:57.742Z,12.70
2022-12-25T02:34:05.726Z,13.27
2022-12-25T02:36:53.873Z,12.67
2022-12-25T02:39:59.667Z,12.27
2022-12-25T02:43:06.228Z,12.30
2022-12-25T02:46:26.545Z,11.33
2022-12-25T02:49:30.685Z,12.77
2022-12-25T02:52:37.874Z,13.47
2022-12-25T02:55:41.281Z,13.53
2022-12-25T02:58:45.181Z,12.60
2022-12-25T03:01:51.948Z,12.30
2022-12-25T03:04:52.978Z,14.47
2022-12-25T03:07:40.996Z,13.00
2022-12-25T03:10:42.014Z,12.77
2022-12-25T03:13:30.286Z,12.57
2022-12-25T03:16:30.833Z,13.87
2022-12-25T03:19:29.135Z,13.20
2022-12-25T03:22:33.808Z,12.70
2022-12-25T03:25:36.425Z,12.00
2022-12-25T03:28:19.602Z,12.33
2022-12-25T03:31:11.724Z,13.10
2022-12-25T03:34:34.410Z,11.50
2022-12-25T03:38:01.320Z,13.10
2022-12-25T03:41:14.968Z,11.90
2022-12-25T03:44:23.459Z,15.87
2022-12-25T03:47:29.764Z,16.23
2022-12-25T03:50:36.130Z,16.23
2022-12-25T03:53:43.365Z,13.90
2022-12-25T03:56:45.460Z,13.67
2022-12-25T03:59:46.079Z,11.53
2022-12-25T04:02:46.652Z,13.00
2022-12-25T04:05:47.237Z,11.80
2022-12-25T04:08:50.079Z,14.33
2022-12-25T04:11:50.540Z,14.00
2022-12-25T04:14:50.731Z,13.53
2022-12-25T04:17:51.251Z,14.23
2022-12-25T04:20:51.540Z,16.87
2022-12-25T04:24:08.142Z,12.17
2022-12-25T04:27:08.336Z,12.37
2022-12-25T04:30:08.544Z,13.30
2022-12-25T04:33:08.879Z,13.90
2022-12-25T04:36:11.700Z,16.63
2022-12-25T04:38:56.092Z,12.77
2022-12-25T04:41:39.199Z,12.43
2022-12-25T04:44:22.241Z,15.70
2022-12-25T04:47:10.880Z,13.97
2022-12-25T04:49:54.649Z,16.20
2022-12-25T04:52:38.504Z,14.53
2022-12-25T04:55:23.122Z,13.77
2022-12-25T04:58:06.377Z,18.37
2022-12-25T05:00:49.468Z,11.87
2022-12-25T05:03:33.830Z,12.63
2022-12-25T05:06:17.402Z,12.70
2022-12-25T05:09:00.465Z,16.83
2022-12-25T05:11:44.920Z,13.10
2022-12-25T05:14:28.083Z,12.73
2022-12-25T05:17:11.118Z,13.03
2022-12-25T05:19:54.175Z,14.00
2022-12-25T05:22:37.217Z,12.77
2022-12-25T05:25:20.307Z,13.10
2022-12-25T05:28:04.842Z,13.70
2022-12-25T05:30:47.897Z,12.67
2022-12-25T05:33:31.058Z,13.00
2022-12-25T05:36:14.490Z,11.97
2022-12-25T05:38:57.581Z,11.67
2022-12-25T05:41:40.676Z,12.70
2022-12-25T05:44:25.404Z,11.03
2022-12-25T05:47:08.444Z,28.63
2022-12-25T05:49:54.413Z,11.73
2022-12-25T05:52:37.678Z,12.20
2022-12-25T05:55:20.959Z,11.50
2022-12-25T05:58:04.164Z,11.97
2022-12-25T06:00:48.697Z,9.47
2022-12-25T06:03:31.832Z,10.47
2022-12-25T06:06:15.407Z,11.57
2022-12-25T06:08:58.440Z,11.40
2022-12-25T06:11:41.655Z,11.60
2022-12-25T06:14:24.736Z,10.50
2022-12-25T06:17:09.213Z,9.70
2022-12-25T06:19:52.246Z,10.17
2022-12-25T06:22:36.060Z,11.53
2022-12-25T06:25:19.280Z,12.63
2022-12-25T06:28:02.375Z,9.80
2022-12-25T06:30:45.665Z,11.60
2022-12-25T06:33:30.192Z,11.80
2022-12-25T06:36:16.230Z,9.67
2022-12-25T06:39:02.057Z,12.03
2022-12-25T06:41:45.159Z,9.00
2022-12-25T06:44:28.458Z,11.20
2022-12-25T06:47:12.057Z,11.43
2022-12-25T06:49:56.497Z,18.60
2022-12-25T06:52:40.987Z,20.40
2022-12-25T06:55:23.999Z,17.50
2022-12-25T06:58:09.939Z,22.07
2022-12-25T07:00:52.968Z,17.83
2022-12-25T07:03:35.990Z,19.17
2022-12-25T07:06:20.579Z,23.97
2022-12-25T07:09:03.803Z,19.97
2022-12-25T07:11:46.985Z,21.73
2022-12-25T07:14:30.063Z,18.33
2022-12-25T07:17:13.197Z,19.73
2022-12-25T07:19:56.760Z,16.30
2022-12-25T07:22:41.355Z,15.87
2022-12-25T07:25:24.472Z,18.00
2022-12-25T07:28:07.701Z,15.63
2022-12-25T07:30:50.853Z,15.07
2022-12-25T07:33:34.267Z,13.87
2022-12-25T07:36:17.361Z,13.27
2022-12-25T07:39:01.863Z,12.30
2022-12-25T07:41:45.282Z,10.53
2022-12-25T07:44:28.354Z,9.93
2022-12-25T07:47:11.615Z,6.17
2022-12-25T07:49:54.603Z,8.90
2022-12-25T07:52:43.587Z,9.30
2022-12-25T07:55:28.639Z,6.70
2022-12-25T07:58:12.045Z,7.23
2022-12-25T08:00:55.284Z,7.00
2022-12-25T08:03:38.851Z,5.83
2022-12-25T08:06:23.454Z,7.00
2022-12-25T08:09:09.016Z,5.53
2022-12-25T08:11:53.542Z,5.47
2022-12-25T08:14:36.634Z,6.23
2022-12-25T08:17:19.813Z,6.03
2022-12-25T08:20:02.900Z,6.93
2022-12-25T08:22:47.262Z,7.07
2022-12-25T08:25:32.063Z,6.63
2022-12-25T08:28:16.587Z,5.53
2022-12-25T08:30:59.710Z,6.43
2022-12-25T08:33:43.020Z,6.07
2022-12-25T08:36:26.860Z,5.53
2022-12-25T08:39:10.294Z,5.23
2022-12-25T08:41:53.413Z,5.97
2022-12-25T08:44:37.959Z,4.73
2022-12-25T08:47:21.065Z,4.80
2022-12-25T08:50:04.265Z,5.37
2022-12-25T08:52:47.374Z,5.33
2022-12-25T08:55:30.893Z,5.80
2022-12-25T08:58:14.751Z,7.50
2022-12-25T09:01:00.270Z,6.57
2022-12-25T09:03:43.686Z,7.60
2022-12-25T09:06:26.909Z,6.43
2022-12-25T09:09:10.068Z,5.47
2022-12-25T09:11:53.310Z,5.60
2022-12-25T09:14:36.348Z,7.77
2022-12-25T09:17:20.875Z,6.60
2022-12-25T09:20:04.142Z,10.27
2022-12-25T09:22:47.234Z,6.10
2022-12-25T09:25:30.365Z,8.67
2022-12-25T09:28:13.488Z,7.07
2022-12-25T09:30:57.053Z,7.30
2022-12-25T09:33:44.144Z,12.57
2022-12-25T09:36:27.286Z,9.40
2022-12-25T09:39:10.391Z,10.47
2022-12-25T09:41:57.512Z,13.77
2022-12-25T09:44:45.785Z,9.00
2022-12-25T09:47:33.260Z,6.30
2022-12-25T09:50:24.978Z,6.40
2022-12-25T09:53:16.554Z,12.03
2022-12-25T09:56:05.347Z,6.33
2022-12-25T09:58:48.971Z,9.73
2022-12-25T10:01:37.635Z,11.70
2022-12-25T10:04:43.405Z,6.00
2022-12-25T10:07:40.552Z,6.97
2022-12-25T10:10:38.430Z,6.80
2022-12-25T10:13:54.106Z,11.70
2022-12-25T10:16:48.098Z,8.60
2022-12-25T10:19:46.204Z,7.43
2022-12-25T10:22:35.835Z,8.87
2022-12-25T10:25:22.042Z,8.30
2022-12-25T10:28:13.098Z,12.07
2022-12-25T10:31:02.396Z,11.03
2022-12-25T10:33:45.635Z,18.63
2022-12-25T10:36:30.645Z,8.90
2022-12-25T10:39:18.600Z,11.17
2022-12-25T10:42:21.339Z,9.73
2022-12-25T10:45:09.186Z,8.83
2022-12-25T10:48:07.377Z,5.97
2022-12-25T10:50:51.704Z,6.40
2022-12-25T10:53:40.877Z,9.07
2022-12-25T10:56:25.972Z,8.23
2022-12-25T10:59:13.184Z,6.30
2022-12-25T11:01:57.379Z,6.93
2022-12-25T11:04:40.652Z,6.13
2022-12-25T11:07:26.806Z,6.53
2022-12-25T11:10:23.292Z,6.40
2022-12-25T11:13:09.913Z,5.70
2022-12-25T11:16:04.667Z,7.00
2022-12-25T11:18:50.411Z,7.17
2022-12-25T11:21:35.244Z,6.13
2022-12-25T11:24:21.239Z,5.87
2022-12-25T11:27:08.156Z,5.93
2022-12-25T11:29:56.143Z,8.07
2022-12-25T11:32:47.587Z,6.17
2022-12-25T11:35:35.666Z,5.50
2022-12-25T11:38:19.068Z,6.63
2022-12-25T11:41:06.053Z,6.80
2022-12-25T11:43:55.004Z,5.37
2022-12-25T11:46:44.386Z,6.43
2022-12-25T11:49:27.570Z,6.07
2022-12-25T11:52:14.067Z,5.13
2022-12-25T11:55:04.196Z,5.37
2022-12-25T11:57:51.408Z,5.53
2022-12-25T12:00:36.858Z,7.90
2022-12-25T12:03:27.187Z,7.00
2022-12-25T12:06:17.426Z,6.27
2022-12-25T12:09:16.113Z,7.10
2022-12-25T12:12:07.299Z,7.47
2022-12-25T12:14:57.201Z,10.33
2022-12-25T12:17:40.360Z,9.20
2022-12-25T12:20:33.312Z,8.30
2022-12-25T12:23:18.068Z,8.43
2022-12-25T12:26:01.674Z,7.13
2022-12-25T12:28:47.888Z,9.90
2022-12-25T12:31:40.987Z,8.00
2022-12-25T12:34:29.634Z,7.37
2022-12-25T12:37:24.656Z,10.67
2022-12-25T12:40:23.221Z,9.73
2022-12-25T12:43:08.405Z,10.73
2022-12-25T12:45:56.836Z,9.00
2022-12-25T12:48:42.827Z,8.87
2022-12-25T12:51:31.728Z,11.33
2022-12-25T12:54:24.022Z,7.93
2022-12-25T12:57:23.167Z,9.67
2022-12-25T13:00:11.014Z,9.73
2022-12-25T13:03:25.838Z,8.10
2022-12-25T13:06:15.154Z,10.03
2022-12-25T13:09:10.636Z,9.10
2022-12-25T13:11:56.012Z,9.77
2022-12-25T13:14:46.588Z,11.07
2022-12-25T13:17:30.964Z,11.90
2022-12-25T13:20:23.710Z,8.50
2022-12-25T13:23:15.675Z,15.77
2022-12-25T13:26:01.641Z,12.47
2022-12-25T13:28:48.158Z,10.87
2022-12-25T13:31:32.251Z,9.20
2022-12-25T13:34:24.793Z,10.63
2022-12-25T13:37:10.249Z,11.27
2022-12-25T13:39:55.923Z,9.43
2022-12-25T13:42:40.597Z,8.93
2022-12-25T13:45:27.319Z,12.97
2022-12-25T13:48:16.762Z,9.43
2022-12-25T13:51:02.251Z,10.97
2022-12-25T13:53:45.693Z,8.70
2022-12-25T13:56:28.726Z,10.00
2022-12-25T13:59:17.409Z,13.37
2022-12-25T14:02:02.331Z,11.80
2022-12-25T14:04:46.350Z,9.73
2022-12-25T14:07:29.454Z,11.73
2022-12-25T14:10:14.395Z,11.83
2022-12-25T14:13:01.083Z,9.50
2022-12-25T14:15:46.335Z,9.87
2022-12-25T14:18:31.423Z,16.03
2022-12-25T14:21:23.686Z,10.77
2022-12-25T14:24:15.028Z,12.40
2022-12-25T14:27:00.465Z,11.27
2022-12-25T14:29:46.882Z,12.07
2022-12-25T14:32:32.604Z,9.57
2022-12-25T14:35:23.359Z,10.40
2022-12-25T14:38:07.750Z,12.30
2022-12-25T14:41:00.466Z,9.60
2022-12-25T14:43:53.548Z,10.30
2022-12-25T14:46:37.309Z,9.57
2022-12-25T14:49:25.859Z,11.10
2022-12-25T14:52:18.436Z,9.33
2022-12-25T14:55:03.416Z,11.13
2022-12-25T14:57:49.940Z,24.13
2022-12-25T15:00:35.856Z,11.07
2022-12-25T15:03:24.330Z,11.47
2022-12-25T15:06:19.205Z,11.20
2022-12-25T15:09:07.219Z,18.70
2022-12-25T15:11:50.567Z,14.97
2022-12-25T15:14:36.467Z,15.07
2022-12-25T15:17:27.984Z,14.77
2022-12-25T15:20:13.841Z,16.97
2022-12-25T15:23:18.428Z,16.53
2022-12-25T15:26:01.448Z,11.83
2022-12-25T15:28:44.729Z,15.20
2022-12-25T15:31:30.438Z,9.70
2022-12-25T15:34:20.534Z,11.90
2022-12-25T15:37:03.622Z,12.73
2022-12-25T15:39:46.971Z,11.13
2022-12-25T15:42:34.130Z,14.23
2022-12-25T15:45:21.492Z,12.00
2022-12-25T15:48:04.601Z,12.10
2022-12-25T15:51:00.940Z,10.93
2022-12-25T15:53:44.174Z,14.53
2022-12-25T15:56:28.281Z,14.57
2022-12-25T15:59:14.408Z,17.33
2022-12-25T16:01:59.309Z,13.60
2022-12-25T16:04:42.667Z,14.03
2022-12-25T16:07:27.771Z,15.07
2022-12-25T16:10:15.985Z,10.87
2022-12-25T16:12:59.119Z,16.03
2022-12-25T16:15:45.105Z,14.40
2022-12-25T16:18:29.995Z,12.50
2022-12-25T16:21:15.656Z,16.70
2022-12-25T16:24:00.088Z,9.30
2022-12-25T16:26:43.573Z,16.23
2022-12-25T16:29:26.880Z,12.83
2022-12-25T16:32:12.886Z,11.33
2022-12-25T16:34:56.333Z,15.47
2022-12-25T16:37:40.828Z,11.73
2022-12-25T16:40:23.990Z,12.47
2022-12-25T16:43:07.284Z,11.17
2022-12-25T16:45:50.442Z,11.13
2022-12-25T16:48:34.989Z,10.80
2022-12-25T16:51:20.093Z,10.17
2022-12-25T16:54:03.222Z,10.87
2022-12-25T16:56:46.344Z,11.47
2022-12-25T16:59:29.745Z,10.67
2022-12-25T17:02:16.605Z,11.33
2022-12-25T17:05:01.272Z,12.43
2022-12-25T17:07:49.125Z,12.80
2022-12-25T17:10:32.584Z,11.87
2022-12-25T17:13:16.138Z,11.23
2022-12-25T17:15:59.353Z,14.13
2022-12-25T17:18:42.504Z,11.53
2022-12-25T17:21:27.603Z,15.13
2022-12-25T17:24:11.217Z,12.53
2022-12-25T17:26:54.478Z,11.93
2022-12-25T17:29:39.089Z,49.93
2022-12-25T17:32:22.108Z,55.90
2022-12-25T17:35:05.620Z,58.37
2022-12-25T17:37:50.082Z,65.50
2022-12-25T17:40:33.139Z,52.67
2022-12-25T17:43:20.815Z,51.67
2022-12-25T17:46:07.168Z,44.13
2022-12-25T17:48:51.139Z,38.53
2022-12-25T17:51:34.165Z,32.33
2022-12-25T17:54:18.678Z,32.77
2022-12-25T17:57:01.860Z,32.33
2022-12-25T17:59:45.110Z,29.17
2022-12-25T18:02:30.022Z,31.37
2022-12-25T18:05:13.315Z,37.07
2022-12-25T18:07:56.581Z,28.90
2022-12-25T18:10:42.932Z,27.87
2022-12-25T18:13:26.024Z,27.67
2022-12-25T18:16:09.676Z,26.53
2022-12-25T18:18:53.808Z,26.90
2022-12-25T18:21:36.952Z,27.43
2022-12-25T18:24:19.988Z,27.43
2022-12-25T18:27:04.488Z,26.93
2022-12-25T18:29:47.963Z,30.03
2022-12-25T18:32:31.013Z,27.43
2022-12-25T18:35:14.070Z,27.63
2022-12-25T18:37:57.605Z,29.83
2022-12-25T18:40:43.170Z,30.10
2022-12-25T18:43:54.195Z,36.50
2022-12-25T18:46:31.558Z,45.60
2022-12-25T18:49:14.721Z,45.90
2022-12-25T18:52:49.551Z,41.60
2022-12-25T18:55:01.035Z,38.93
2022-12-25T18:57:44.541Z,51.10
2022-12-25T19:00:29.161Z,46.47
2022-12-25T19:03:12.332Z,37.47
2022-12-25T19:05:55.411Z,44.60
2022-12-25T19:08:38.576Z,28.97
2022-12-25T19:11:22.389Z,27.13
2022-12-25T19:14:05.536Z,22.77
2022-12-25T19:16:50.797Z,22.63
2022-12-25T19:19:34.630Z,31.77
2022-12-25T19:22:18.330Z,29.50
2022-12-25T19:25:03.117Z,31.50
2022-12-25T19:27:46.628Z,25.17
2022-12-25T19:30:29.691Z,22.47
2022-12-25T19:33:17.741Z,24.13
2022-12-25T19:36:01.885Z,29.00
2022-12-25T19:38:45.364Z,24.30
2022-12-25T19:41:28.457Z,24.80
2022-12-25T19:44:12.243Z,19.67
2022-12-25T19:46:55.909Z,19.43
2022-12-25T19:49:40.857Z,20.87
2022-12-25T19:52:24.466Z,19.40
2022-12-25T19:55:08.600Z,19.93
2022-12-25T19:57:51.659Z,16.60
2022-12-25T20:00:35.311Z,17.97
2022-12-25T20:03:18.533Z,16.57
2022-12-25T20:06:03.243Z,23.07
2022-12-25T20:08:46.825Z,22.20
2022-12-25T20:11:32.517Z,20.83
2022-12-25T20:14:17.389Z,22.00
2022-12-25T20:17:00.522Z,20.47
2022-12-25T20:19:44.055Z,23.73
2022-12-25T20:22:29.122Z,23.60
2022-12-25T20:25:14.049Z,23.10
2022-12-25T20:27:57.494Z,22.67
2022-12-25T20:30:40.897Z,20.23
2022-12-25T20:33:24.447Z,24.57
2022-12-25T20:36:08.167Z,24.57
2022-12-25T20:38:53.103Z,19.10
2022-12-25T20:41:36.631Z,19.30
2022-12-25T20:44:20.227Z,29.60
2022-12-25T20:47:03.804Z,24.63
2022-12-25T20:49:48.188Z,21.87
2022-12-25T20:52:31.320Z,30.03
2022-12-25T20:55:15.839Z,61.17
2022-12-25T20:57:58.918Z,46.97
2022-12-25T21:00:42.468Z,46.67
2022-12-25T21:03:25.930Z,47.67
2022-12-25T21:06:10.158Z,44.03
2022-12-25T21:08:53.544Z,52.97
2022-12-25T21:11:39.623Z,47.73
2022-12-25T21:14:23.043Z,46.27
2022-12-25T21:17:06.220Z,51.93
2022-12-25T21:19:49.635Z,54.97
2022-12-25T21:22:33.698Z,50.77
2022-12-25T21:25:16.878Z,54.50
2022-12-25T21:28:01.513Z,50.63
2022-12-25T21:30:44.828Z,48.00
2022-12-25T21:33:45.545Z,45.87
2022-12-25T21:36:30.117Z,59.43
2022-12-25T21:39:14.350Z,63.43
2022-12-25T21:41:57.444Z,62.77
2022-12-25T21:44:41.881Z,59.57
2022-12-25T21:47:24.922Z,51.20
2022-12-25T21:50:25.970Z,50.53
2022-12-25T21:53:09.330Z,50.20
2022-12-25T21:56:00.693Z,39.87
2022-12-25T21:58:43.845Z,35.57
2022-12-25T22:01:28.495Z,21.97
2022-12-25T22:04:12.303Z,19.70
2022-12-25T22:07:09.185Z,24.90
2022-12-25T22:09:52.857Z,30.47
2022-12-25T22:12:53.165Z,21.97
2022-12-25T22:15:53.488Z,19.57
2022-12-25T22:18:55.683Z,20.10
2022-12-25T22:21:38.795Z,23.77
2022-12-25T22:24:21.820Z,15.97
2022-12-25T22:27:05.214Z,17.07
2022-12-25T22:29:48.665Z,20.70
2022-12-25T22:32:31.723Z,21.00
2022-12-25T22:35:16.396Z,18.03
2022-12-25T22:37:59.408Z,19.67
2022-12-25T22:40:42.418Z,18.73
2022-12-25T22:43:50.458Z,17.90
2022-12-25T22:46:29.136Z,16.20
2022-12-25T22:49:12.207Z,16.00
2022-12-25T22:51:56.906Z,18.17
2022-12-25T22:54:40.117Z,23.90
2022-12-25T22:57:23.108Z,17.70
2022-12-25T23:00:08.927Z,19.27
2022-12-25T23:02:52.164Z,16.23
2022-12-25T23:05:35.287Z,14.23
2022-12-25T23:08:19.683Z,15.60
2022-12-25T23:11:03.499Z,23.43
2022-12-25T23:14:03.328Z,18.27
2022-12-25T23:16:46.473Z,18.63
2022-12-25T23:19:46.975Z,16.47
2022-12-25T23:22:47.387Z,18.63
2022-12-25T23:25:49.370Z,16.23
2022-12-25T23:28:49.640Z,18.57
2022-12-25T23:31:35.093Z,27.00
2022-12-25T23:34:18.111Z,41.17
2022-12-25T23:37:01.174Z,38.40
2022-12-25T23:39:44.379Z,52.13
2022-12-25T23:42:28.859Z,58.53
2022-12-25T23:45:13.825Z,63.77
2022-12-25T23:47:56.859Z,57.23
2022-12-25T23:50:39.906Z,62.23
2022-12-25T23:53:22.986Z,55.10
2022-12-25T23:56:06.803Z,55.57
2022-12-25T23:58:52.467Z,57.53
